Time;durP1;ratioP1;P1;durP2;ratioP2;P2;SDS_P1;SDS_P2;PMS_P1;PMS_P2;Temp;Humidity;BMP_temperature;BMP_pressure;BME280_temperature;BME280_humidity;BME280_pressure;Samples;Min_cycle;Max_cycle;Signal;HPM_P1;HPM_P2
2022/09/11 00:00:50;;;;;;;1.25;0.35;;;15.50;99.90;;;;;;5041862;28;20052;-80
2022/09/11 00:03:17;;;;;;;0.77;0.40;;;15.50;99.90;;;;;;5038777;28;20043;-80
2022/09/11 00:05:43;;;;;;;1.13;0.65;;;15.30;99.90;;;;;;5035238;28;20159;-80
2022/09/11 00:08:15;;;;;;;1.15;0.38;;;15.40;99.90;;;;;;5045710;28;20029;-80
2022/09/11 00:10:43;;;;;;;2.63;0.40;;;15.50;99.90;;;;;;5049197;28;20029;-80
2022/09/11 00:13:11;;;;;;;0.30;0.20;;;15.60;99.90;;;;;;5049398;28;20574;-81
2022/09/11 00:15:41;;;;;;;2.40;0.55;;;15.60;99.90;;;;;;5049693;28;20478;-81
2022/09/11 00:18:09;;;;;;;1.30;0.40;;;15.40;99.90;;;;;;5049901;28;20059;-80
2022/09/11 00:20:35;;;;;;;2.33;1.00;;;15.40;99.90;;;;;;5050694;28;20051;-80
2022/09/11 00:23:03;;;;;;;2.92;0.70;;;15.60;99.90;;;;;;5032785;28;20390;-80
2022/09/11 00:25:34;;;;;;;0.75;0.40;;;15.60;99.90;;;;;;5039067;28;20029;-80
2022/09/11 00:28:00;;;;;;;1.27;0.38;;;15.60;99.90;;;;;;5039789;28;20032;-80
2022/09/11 00:30:27;;;;;;;1.10;0.60;;;15.50;99.90;;;;;;5040481;28;20036;-80
2022/09/11 00:32:54;;;;;;;0.98;0.40;;;15.50;99.90;;;;;;5037340;28;20049;-80
2022/09/11 00:35:21;;;;;;;2.15;0.55;;;15.50;99.90;;;;;;5046605;28;20029;-80
2022/09/11 00:37:47;;;;;;;2.35;0.50;;;15.60;99.90;;;;;;5047046;28;20037;-80
2022/09/11 00:40:14;;;;;;;0.65;0.30;;;15.70;99.90;;;;;;5031052;28;20022;-80
2022/09/11 00:42:40;;;;;;;4.88;0.73;;;15.80;99.90;;;;;;5036972;28;20471;-80
2022/09/11 00:45:16;;;;;;;1.63;0.50;;;15.80;99.90;;;;;;5034660;28;20083;-81
2022/09/11 00:47:42;;;;;;;1.40;0.60;;;15.70;99.90;;;;;;5033038;28;20384;-80
2022/09/11 00:50:15;;;;;;;2.53;0.80;;;15.60;99.90;;;;;;5032732;28;20061;-80
2022/09/11 00:52:53;;;;;;;1.02;0.70;;;15.50;99.90;;;;;;5039728;28;20113;-80
2022/09/11 00:55:22;;;;;;;1.65;0.40;;;15.50;99.90;;;;;;5030761;28;20083;-80
2022/09/11 00:58:08;;;;;;;0.93;0.40;;;15.50;99.90;;;;;;5032644;28;20387;-80
2022/09/11 01:00:35;;;;;;;2.58;0.50;;;15.50;99.90;;;;;;5040188;28;20029;-80
2022/09/11 01:03:02;;;;;;;0.82;0.40;;;15.50;99.90;;;;;;5046851;28;20025;-80
2022/09/11 01:05:33;;;;;;;2.03;0.50;;;15.50;99.90;;;;;;5030306;28;20048;-80
2022/09/11 01:08:02;;;;;;;1.60;0.47;;;15.50;99.90;;;;;;5031246;28;20030;-79
2022/09/11 01:10:48;;;;;;;1.50;0.45;;;15.60;99.90;;;;;;5031325;28;20434;-80
2022/09/11 01:13:20;;;;;;;2.50;0.60;;;15.60;99.90;;;;;;5035785;28;20491;-80
2022/09/11 01:15:54;;;;;;;2.58;0.60;;;15.60;99.90;;;;;;5032453;28;20049;-80
2022/09/11 01:18:22;;;;;;;0.60;0.30;;;15.30;99.90;;;;;;5042736;28;20025;-80
2022/09/11 01:21:27;;;;;;;2.25;0.40;;;15.20;99.90;;;;;;5051289;28;20029;-82
2022/09/11 01:24:23;;;;;;;4.28;0.90;;;15.30;99.90;;;;;;5036246;28;20444;-80
2022/09/11 01:27:20;;;;;;;3.05;0.80;;;15.20;99.90;;;;;;5034080;28;20488;-80
2022/09/11 01:29:57;;;;;;;2.33;0.40;;;15.10;99.90;;;;;;5044001;28;20064;-80
2022/09/11 01:32:48;;;;;;;0.95;0.40;;;15.00;99.90;;;;;;5048146;28;20021;-80
2022/09/11 01:35:30;;;;;;;1.70;0.93;;;15.00;99.90;;;;;;5051389;28;20041;-80
2022/09/11 01:38:04;;;;;;;4.75;0.47;;;14.80;99.90;;;;;;5052546;28;20053;-80
2022/09/11 01:40:48;;;;;;;0.95;0.40;;;14.70;99.90;;;;;;5047945;28;20032;-80
2022/09/11 01:43:22;;;;;;;1.63;0.43;;;14.70;99.90;;;;;;5044307;28;20079;-80
2022/09/11 01:45:51;;;;;;;0.82;0.50;;;14.90;99.90;;;;;;5043313;28;20026;-80
2022/09/11 01:48:20;;;;;;;0.73;0.43;;;14.90;99.90;;;;;;5033640;28;20132;-80
2022/09/11 01:50:48;;;;;;;1.02;0.35;;;14.90;99.90;;;;;;5033783;28;20030;-80
2022/09/11 01:53:17;;;;;;;1.33;0.43;;;14.60;99.90;;;;;;5032559;28;20032;-80
2022/09/11 01:55:48;;;;;;;3.25;1.20;;;14.80;99.90;;;;;;5035848;28;20028;-80
2022/09/11 01:58:26;;;;;;;1.73;0.40;;;14.70;99.90;;;;;;5033875;28;20044;-80
2022/09/11 02:00:58;;;;;;;2.10;0.82;;;14.80;99.90;;;;;;5033147;28;20075;-80
2022/09/11 02:03:38;;;;;;;1.95;0.40;;;14.80;99.90;;;;;;5038109;28;20037;-80
2022/09/11 02:06:08;;;;;;;1.08;0.57;;;14.80;99.90;;;;;;5044107;28;20071;-80
2022/09/11 02:08:59;;;;;;;1.85;0.70;;;14.60;99.90;;;;;;5044919;28;20029;-80
2022/09/11 02:11:24;;;;;;;0.45;0.30;;;14.60;99.90;;;;;;5047758;28;20041;-80
2022/09/11 02:14:05;;;;;;;1.23;0.60;;;14.80;99.90;;;;;;5041453;28;20183;-80
2022/09/11 02:16:45;;;;;;;1.13;0.50;;;14.90;99.90;;;;;;5046048;28;20028;-80
2022/09/11 02:19:15;;;;;;;3.55;0.60;;;14.80;99.90;;;;;;5053125;28;20064;-80
2022/09/11 02:21:42;;;;;;;0.95;0.50;;;14.90;99.90;;;;;;5047746;28;20116;-80
2022/09/11 02:24:09;;;;;;;2.03;0.40;;;14.60;99.90;;;;;;5051497;28;20428;-80
2022/09/11 02:26:41;;;;;;;2.72;0.50;;;14.50;99.90;;;;;;5052762;28;20087;-80
2022/09/11 02:29:07;;;;;;;1.90;0.80;;;14.50;99.90;;;;;;5052063;28;20479;-80
2022/09/11 02:31:34;;;;;;;2.40;0.60;;;14.40;99.90;;;;;;5048814;28;20025;-81
2022/09/11 02:34:00;;;;;;;1.55;0.50;;;14.20;99.90;;;;;;5048833;28;20052;-80
2022/09/11 02:36:32;;;;;;;4.15;0.60;;;14.40;99.90;;;;;;5053323;28;20475;-80
2022/09/11 02:39:03;;;;;;;2.17;0.57;;;14.20;99.90;;;;;;5047831;28;20029;-80
2022/09/11 02:42:02;;;;;;;1.38;0.57;;;14.10;99.90;;;;;;5048739;28;20036;-80
2022/09/11 02:44:46;;;;;;;1.13;0.60;;;14.20;99.90;;;;;;5033104;28;20456;-80
2022/09/11 02:47:44;;;;;;;0.55;0.30;;;14.00;99.90;;;;;;5050356;28;20533;-80
2022/09/11 02:50:13;;;;;;;1.88;0.40;;;14.10;99.90;;;;;;5032619;28;20092;-81
2022/09/11 02:52:50;;;;;;;4.25;0.98;;;14.00;99.90;;;;;;5039643;28;20071;-80
2022/09/11 02:55:24;;;;;;;1.48;0.40;;;13.90;99.90;;;;;;5038561;28;20506;-80
2022/09/11 02:58:14;;;;;;;1.92;0.70;;;13.90;99.90;;;;;;5032170;28;20087;-80
2022/09/11 03:00:41;;;;;;;3.35;0.52;;;14.10;99.90;;;;;;5042513;28;20038;-78
2022/09/11 03:03:06;;;;;;;2.00;0.60;;;14.10;99.90;;;;;;5032427;28;20057;-79
2022/09/11 03:05:32;;;;;;;0.55;0.30;;;14.10;99.90;;;;;;5034292;28;20061;-79
2022/09/11 03:07:58;;;;;;;1.40;0.40;;;14.10;99.90;;;;;;5047853;28;20029;-78
2022/09/11 03:10:26;;;;;;;0.93;0.50;;;14.10;99.90;;;;;;5046591;28;20025;-79
2022/09/11 03:12:53;;;;;;;1.10;0.47;;;13.90;99.90;;;;;;5030052;28;20044;-79
2022/09/11 03:15:19;;;;;;;2.00;0.38;;;13.80;99.90;;;;;;5027380;28;20025;-79
2022/09/11 03:17:45;;;;;;;1.15;0.80;;;13.70;99.90;;;;;;5026773;28;20034;-78
2022/09/11 03:20:11;;;;;;;2.63;0.50;;;13.80;99.90;;;;;;5045384;28;20651;-78
2022/09/11 03:22:38;;;;;;;1.45;0.73;;;13.70;99.90;;;;;;5044083;28;20058;-79
2022/09/11 03:25:05;;;;;;;1.58;0.50;;;13.80;99.90;;;;;;5047976;28;20124;-79
2022/09/11 03:27:31;;;;;;;0.75;0.35;;;13.70;99.90;;;;;;5046582;28;20028;-79
2022/09/11 03:29:57;;;;;;;1.33;0.50;;;13.80;99.90;;;;;;5031818;28;20489;-79
2022/09/11 03:32:23;;;;;;;2.47;0.70;;;13.60;99.90;;;;;;5042823;28;20029;-79
2022/09/11 03:34:49;;;;;;;1.30;0.57;;;13.50;99.90;;;;;;5028256;28;20033;-79
2022/09/11 03:37:15;;;;;;;4.03;0.60;;;13.60;99.90;;;;;;5040675;28;20132;-78
2022/09/11 03:39:42;;;;;;;3.15;0.50;;;13.50;99.90;;;;;;5043834;28;20078;-80
2022/09/11 03:42:11;;;;;;;2.45;0.60;;;13.60;99.90;;;;;;5039556;28;20036;-78
2022/09/11 03:44:36;;;;;;;1.90;0.30;;;13.50;99.90;;;;;;5047589;28;20032;-78
2022/09/11 03:47:02;;;;;;;1.55;0.52;;;13.50;99.90;;;;;;5040340;28;20086;-78
2022/09/11 03:49:28;;;;;;;1.27;0.50;;;13.50;99.90;;;;;;5047333;28;20041;-78
2022/09/11 03:51:53;;;;;;;3.50;0.60;;;13.50;99.90;;;;;;5037137;28;20036;-79
2022/09/11 03:54:19;;;;;;;0.63;0.40;;;13.60;99.90;;;;;;5028055;28;20021;-79
2022/09/11 03:56:45;;;;;;;1.55;0.43;;;13.60;99.90;;;;;;5033040;28;20037;-79
2022/09/11 03:59:12;;;;;;;1.90;0.60;;;13.60;99.90;;;;;;5041612;28;20045;-78
2022/09/11 04:01:37;;;;;;;0.60;0.32;;;13.60;99.90;;;;;;5032014;28;20038;-79
2022/09/11 04:04:03;;;;;;;0.65;0.35;;;13.70;99.90;;;;;;5026300;28;20045;-79
2022/09/11 04:06:31;;;;;;;1.73;0.60;;;13.50;99.90;;;;;;5030561;28;20822;-78
2022/09/11 04:08:57;;;;;;;0.63;0.22;;;13.40;99.90;;;;;;5027395;28;20037;-79
2022/09/11 04:11:23;;;;;;;1.55;0.50;;;13.50;99.90;;;;;;5043588;28;20635;-79
2022/09/11 04:13:50;;;;;;;1.58;0.55;;;13.40;99.90;;;;;;5043413;28;20103;-79
2022/09/11 04:16:17;;;;;;;0.90;0.50;;;13.50;99.90;;;;;;5032109;28;20040;-78
2022/09/11 04:18:44;;;;;;;1.13;0.43;;;13.50;99.90;;;;;;5047641;28;20039;-79
2022/09/11 04:21:13;;;;;;;1.20;0.40;;;13.60;99.90;;;;;;5033156;28;20055;-79
2022/09/11 04:23:40;;;;;;;2.08;0.47;;;13.70;99.90;;;;;;5047718;28;20056;-79
2022/09/11 04:26:14;;;;;;;0.50;0.30;;;13.70;99.90;;;;;;5048008;28;20490;-78
2022/09/11 04:28:40;;;;;;;;;;;13.70;99.90;;;;;;5058800;28;20029;-80
2022/09/11 04:31:06;;;;;;;1.77;0.60;;;13.60;99.90;;;;;;5041751;28;19913;-80
2022/09/11 04:33:33;;;;;;;2.70;0.60;;;13.40;99.90;;;;;;5041932;28;20033;-79
2022/09/11 04:36:03;;;;;;;1.65;0.73;;;13.50;99.90;;;;;;5035174;28;20040;-78
2022/09/11 04:38:29;;;;;;;0.80;0.40;;;13.50;99.90;;;;;;5029837;28;20105;-79
2022/09/11 04:40:59;;;;;;;0.90;0.35;;;13.60;99.90;;;;;;5042702;28;20136;-79
2022/09/11 04:43:25;;;;;;;1.75;0.43;;;13.70;99.90;;;;;;5040149;28;20580;-79
2022/09/11 04:45:50;;;;;;;1.10;0.40;;;13.60;99.90;;;;;;5045686;28;20013;-79
2022/09/11 04:48:16;;;;;;;5.72;0.43;;;13.30;99.90;;;;;;5045974;28;20037;-79
2022/09/11 04:50:42;;;;;;;2.25;0.32;;;13.50;99.90;;;;;;5046377;28;20029;-79
2022/09/11 04:53:07;;;;;;;2.13;0.52;;;13.60;99.90;;;;;;5044660;28;20114;-79
2022/09/11 04:55:33;;;;;;;0.95;0.35;;;13.70;99.90;;;;;;5026446;28;20033;-78
2022/09/11 04:57:59;;;;;;;0.80;0.30;;;13.70;99.90;;;;;;5042853;28;20037;-78
2022/09/11 05:00:24;;;;;;;1.10;0.50;;;13.50;99.90;;;;;;5038106;28;20083;-79
2022/09/11 05:02:50;;;;;;;1.10;0.35;;;13.70;99.90;;;;;;5032242;28;20033;-79
2022/09/11 05:05:16;;;;;;;3.40;0.50;;;13.70;99.90;;;;;;5030430;28;20504;-79
2022/09/11 05:07:42;;;;;;;2.45;0.40;;;13.40;99.90;;;;;;5030225;28;20113;-79
2022/09/11 05:10:09;;;;;;;3.47;0.73;;;13.30;99.90;;;;;;5030280;28;20379;-79
2022/09/11 05:12:35;;;;;;;2.60;0.98;;;13.20;99.90;;;;;;5031721;28;20156;-80
2022/09/11 05:15:00;;;;;;;0.52;0.35;;;13.20;99.90;;;;;;5030768;28;20534;-78
2022/09/11 05:17:26;;;;;;;1.02;0.32;;;13.30;99.90;;;;;;5035976;28;20711;-79
2022/09/11 05:19:52;;;;;;;1.35;0.30;;;13.20;99.90;;;;;;5030348;28;20044;-78
2022/09/11 05:22:17;;;;;;;5.22;0.60;;;13.40;99.90;;;;;;5031821;28;20419;-78
2022/09/11 05:24:43;;;;;;;2.63;0.47;;;13.30;99.90;;;;;;5041210;28;20184;-79
2022/09/11 05:27:10;;;;;;;1.15;0.40;;;13.50;99.90;;;;;;5046202;28;20037;-79
2022/09/11 05:29:38;;;;;;;1.67;0.60;;;13.60;99.90;;;;;;5030157;28;20041;-79
2022/09/11 05:32:04;;;;;;;0.60;0.40;;;13.60;99.90;;;;;;5040064;28;20082;-78
2022/09/11 05:34:30;;;;;;;2.30;0.80;;;13.50;99.90;;;;;;5039600;28;20031;-79
2022/09/11 05:36:56;;;;;;;2.28;0.38;;;13.60;99.90;;;;;;5044964;28;20036;-79
2022/09/11 05:39:22;;;;;;;6.70;0.68;;;13.60;99.90;;;;;;5038881;28;20445;-78
2022/09/11 05:41:52;;;;;;;2.85;0.40;;;13.70;99.90;;;;;;5033401;28;20538;-79
2022/09/11 05:44:18;;;;;;;2.13;0.43;;;13.90;99.90;;;;;;5030176;28;20474;-78
2022/09/11 05:46:44;;;;;;;1.88;0.55;;;14.00;99.90;;;;;;5048821;28;20494;-79
2022/09/11 05:49:11;;;;;;;6.65;0.82;;;14.20;99.90;;;;;;5048902;28;20033;-79
2022/09/11 05:51:38;;;;;;;1.60;0.35;;;13.90;99.90;;;;;;5048704;28;20086;-78
2022/09/11 05:54:04;;;;;;;0.88;0.40;;;13.80;99.90;;;;;;5047620;28;20545;-79
2022/09/11 05:56:30;;;;;;;1.02;0.38;;;13.80;99.90;;;;;;5044540;28;20036;-78
2022/09/11 05:58:57;;;;;;;0.60;0.20;;;13.80;99.90;;;;;;5042203;28;20029;-79
2022/09/11 06:01:25;;;;;;;0.65;0.20;;;13.70;99.90;;;;;;5034358;28;20033;-78
2022/09/11 06:03:51;;;;;;;1.83;0.60;;;13.60;99.90;;;;;;5029055;28;20037;-78
2022/09/11 06:06:20;;;;;;;1.95;0.40;;;13.70;99.90;;;;;;5043323;28;20037;-79
2022/09/11 06:08:46;;;;;;;1.98;0.47;;;13.40;99.90;;;;;;5044777;28;20029;-78
2022/09/11 06:11:14;;;;;;;1.70;0.73;;;13.40;99.90;;;;;;5049370;28;20408;-79
2022/09/11 06:13:42;;;;;;;3.10;0.55;;;13.40;99.90;;;;;;5040571;28;20026;-78
2022/09/11 06:16:15;;;;;;;1.88;0.50;;;13.30;99.90;;;;;;5029989;28;20411;-78
2022/09/11 06:18:40;;;;;;;2.67;0.75;;;13.40;99.90;;;;;;5028898;28;20716;-79
2022/09/11 06:21:09;;;;;;;9.50;0.90;;;13.40;99.90;;;;;;5041525;28;20052;-78
2022/09/11 06:23:36;;;;;;;1.02;0.40;;;13.40;99.90;;;;;;5035818;28;20411;-79
2022/09/11 06:26:10;;;;;;;3.88;0.63;;;13.50;99.90;;;;;;5029449;28;20037;-78
2022/09/11 06:28:36;;;;;;;;;;;13.60;99.90;;;;;;5035645;28;20454;-80
2022/09/11 06:31:10;;;;;;;2.38;0.40;;;13.50;99.90;;;;;;5043496;28;19940;-78
2022/09/11 06:33:38;;;;;;;3.00;0.40;;;13.60;99.90;;;;;;5041193;28;20033;-78
2022/09/11 06:36:10;;;;;;;4.45;0.63;;;13.50;99.90;;;;;;5031362;28;20431;-78
2022/09/11 06:38:37;;;;;;;1.35;0.35;;;13.70;99.90;;;;;;5037019;28;20032;-78
2022/09/11 06:41:05;;;;;;;1.00;0.47;;;14.10;99.90;;;;;;5039537;28;20047;-79
2022/09/11 06:43:32;;;;;;;1.75;0.40;;;14.30;99.90;;;;;;5028716;28;20038;-79
2022/09/11 06:46:16;;;;;;;0.52;0.32;;;14.40;99.90;;;;;;5032319;28;20025;-79
2022/09/11 06:48:43;;;;;;;1.27;0.50;;;14.40;99.90;;;;;;5047713;28;20037;-79
2022/09/11 06:51:11;;;;;;;2.92;0.50;;;14.40;99.90;;;;;;5047235;28;20073;-79
2022/09/11 06:53:37;;;;;;;2.00;0.50;;;14.40;99.90;;;;;;5034817;28;20033;-79
2022/09/11 06:56:05;;;;;;;2.90;0.50;;;14.40;99.90;;;;;;5026216;28;20044;-78
2022/09/11 06:58:31;;;;;;;1.00;0.50;;;15.10;99.90;;;;;;5026524;28;20148;-79
2022/09/11 07:01:05;;;;;;;0.70;0.28;;;17.30;99.90;;;;;;5025974;28;20037;-78
2022/09/11 07:03:31;;;;;;;2.00;0.40;;;19.80;99.90;;;;;;5040282;28;20076;-79
2022/09/11 07:05:58;;;;;;;1.38;0.40;;;21.70;97.20;;;;;;5042965;28;20036;-79
2022/09/11 07:08:23;;;;;;;1.58;0.30;;;22.70;94.80;;;;;;5035664;28;20033;-77
2022/09/11 07:10:49;;;;;;;1.45;0.55;;;22.80;94.40;;;;;;5023510;28;20769;-78
2022/09/11 07:13:15;;;;;;;3.03;0.55;;;23.20;94.20;;;;;;5027003;28;20132;-77
2022/09/11 07:15:41;;;;;;;1.50;0.80;;;20.20;97.20;;;;;;5034026;28;20108;-76
2022/09/11 07:18:07;;;;;;;1.27;0.50;;;18.30;99.90;;;;;;5037830;28;20137;-77
2022/09/11 07:20:33;;;;;;;0.45;0.30;;;17.10;99.90;;;;;;5032776;28;20044;-78
2022/09/11 07:22:59;;;;;;;1.65;0.50;;;16.40;99.90;;;;;;5028274;28;20037;-79
2022/09/11 07:25:25;;;;;;;2.95;0.57;;;16.10;99.90;;;;;;5026516;28;20029;-80
2022/09/11 07:27:51;;;;;;;0.80;0.20;;;15.90;99.90;;;;;;5025366;28;20490;-80
2022/09/11 07:30:18;;;;;;;2.25;0.47;;;15.80;99.90;;;;;;5042132;28;20047;-80
2022/09/11 07:32:44;;;;;;;3.63;0.45;;;15.60;99.90;;;;;;5032801;28;20068;-80
2022/09/11 07:35:10;;;;;;;1.40;0.75;;;15.70;99.90;;;;;;5033350;28;20037;-80
2022/09/11 07:37:35;;;;;;;2.78;0.68;;;15.70;99.90;;;;;;5036637;28;20039;-83
2022/09/11 07:40:03;;;;;;;2.75;0.55;;;15.70;99.90;;;;;;5028952;28;20576;-80
2022/09/11 07:42:28;;;;;;;3.03;0.88;;;15.80;99.90;;;;;;5025102;28;20041;-80
2022/09/11 07:44:54;;;;;;;1.38;0.88;;;15.90;99.90;;;;;;5027249;28;20941;-81
2022/09/11 07:47:20;;;;;;;3.25;0.68;;;15.90;99.90;;;;;;5037009;28;20037;-81
2022/09/11 07:49:46;;;;;;;1.33;0.30;;;15.90;99.90;;;;;;5032394;28;20065;-81
2022/09/11 07:52:13;;;;;;;0.43;0.20;;;15.90;99.90;;;;;;5036670;28;20420;-81
2022/09/11 07:54:39;;;;;;;1.02;0.40;;;15.80;99.90;;;;;;5041625;28;20024;-81
2022/09/11 07:57:05;;;;;;;0.45;0.32;;;15.90;99.90;;;;;;5033419;28;20395;-81
2022/09/11 07:59:30;;;;;;;1.27;0.30;;;15.90;99.90;;;;;;5030151;28;20038;-81
2022/09/11 08:01:56;;;;;;;2.95;0.30;;;15.90;99.90;;;;;;5026857;28;20108;-84
2022/09/11 08:04:22;;;;;;;1.00;0.30;;;15.80;99.90;;;;;;5038896;28;20036;-81
2022/09/11 08:06:47;;;;;;;1.55;0.40;;;16.00;99.90;;;;;;5041973;28;20037;-81
2022/09/11 08:09:14;;;;;;;0.55;0.28;;;16.00;99.90;;;;;;5044046;28;20056;-83
2022/09/11 08:11:47;;;;;;;1.90;0.90;;;16.00;99.90;;;;;;5035294;28;20065;-76
2022/09/11 08:14:16;;;;;;;3.40;0.60;;;16.00;99.90;;;;;;5030416;28;20087;-79
2022/09/11 08:16:42;;;;;;;2.47;0.73;;;16.10;99.90;;;;;;5031861;28;20361;-79
2022/09/11 08:19:16;;;;;;;2.50;0.68;;;16.20;99.90;;;;;;5031938;28;20035;-78
2022/09/11 08:21:42;;;;;;;1.65;0.57;;;16.30;99.90;;;;;;5041875;28;20497;-77
2022/09/11 08:24:10;;;;;;;0.52;0.30;;;16.30;99.90;;;;;;5033227;28;20609;-78
2022/09/11 08:26:36;;;;;;;1.42;0.68;;;16.20;99.90;;;;;;5022680;28;20045;-78
2022/09/11 08:29:02;;;;;;;0.65;0.30;;;16.30;99.90;;;;;;5025789;28;20037;-77
2022/09/11 08:31:28;;;;;;;1.60;0.80;;;16.40;99.90;;;;;;5023483;28;20047;-79
2022/09/11 08:33:55;;;;;;;4.03;0.50;;;16.50;99.90;;;;;;5031577;28;20033;-77
2022/09/11 08:36:21;;;;;;;1.33;0.63;;;16.60;99.90;;;;;;5024050;28;20026;-79
2022/09/11 08:38:47;;;;;;;0.95;0.32;;;16.60;99.90;;;;;;5024191;28;20033;-77
2022/09/11 08:41:49;;;;;;;0.85;0.40;;;16.70;99.90;;;;;;5023742;28;20437;-77
2022/09/11 08:44:18;;;;;;;1.30;0.50;;;16.80;99.90;;;;;;5024491;28;20026;-79
2022/09/11 08:46:48;;;;;;;0.80;0.38;;;16.90;99.90;;;;;;5027361;28;20164;-77
2022/09/11 08:49:40;;;;;;;1.60;0.40;;;16.80;99.90;;;;;;5044914;28;20029;-77
2022/09/11 08:52:11;;;;;;;0.77;0.50;;;16.90;99.90;;;;;;5037074;28;20124;-77
2022/09/11 08:54:40;;;;;;;2.42;0.40;;;17.00;99.90;;;;;;5045324;28;20037;-77
2022/09/11 08:57:23;;;;;;;2.50;0.40;;;17.20;99.90;;;;;;5039195;28;20049;-78
2022/09/11 09:00:14;;;;;;;4.18;0.47;;;17.30;99.90;;;;;;5026237;28;20033;-77
2022/09/11 09:02:40;;;;;;;1.58;0.22;;;20.30;99.80;;;;;;5031928;28;20868;-79
2022/09/11 09:05:24;;;;;;;0.55;0.30;;;23.60;94.50;;;;;;5044439;28;20045;-79
2022/09/11 09:08:01;;;;;;;0.63;0.38;;;24.80;92.60;;;;;;5027825;28;20053;-77
2022/09/11 09:10:41;;;;;;;1.85;0.20;;;25.30;92.30;;;;;;5043319;28;20056;-79
2022/09/11 09:13:43;;;;;;;2.63;0.60;;;25.60;92.30;;;;;;5043788;28;20415;-78
2022/09/11 09:16:20;;;;;;;0.55;0.15;;;25.90;92.00;;;;;;5043844;28;20025;-77
2022/09/11 09:18:52;;;;;;;2.05;0.40;;;25.50;92.30;;;;;;5024807;28;20405;-76
2022/09/11 09:21:26;;;;;;;1.25;0.55;;;25.50;92.50;;;;;;5043388;28;20032;-75
2022/09/11 09:23:54;;;;;;;1.23;0.60;;;26.70;92.30;;;;;;5040258;28;20029;-75
2022/09/11 09:26:26;;;;;;;2.70;0.73;;;26.90;91.40;;;;;;5027700;28;20043;-79
2022/09/11 09:28:55;;;;;;;1.45;0.30;;;27.30;91.60;;;;;;5028237;28;20040;-75
2022/09/11 09:31:27;;;;;;;1.95;0.50;;;26.70;91.10;;;;;;5036013;28;20032;-78
2022/09/11 09:34:12;;;;;;;2.35;0.20;;;26.40;90.80;;;;;;5035869;28;20664;-75
2022/09/11 09:36:46;;;;;;;1.65;0.40;;;27.20;90.50;;;;;;5023688;28;20119;-77
2022/09/11 09:39:16;;;;;;;0.88;0.32;;;26.60;90.10;;;;;;5039046;28;20057;-77
2022/09/11 09:42:00;;;;;;;1.48;0.65;;;26.70;91.00;;;;;;5033299;28;20033;-77
2022/09/11 09:44:35;;;;;;;2.53;0.40;;;25.90;91.60;;;;;;5027530;28;20626;-78
2022/09/11 09:47:01;;;;;;;3.03;1.05;;;25.30;91.10;;;;;;5026714;28;20055;-77
2022/09/11 09:49:31;;;;;;;1.35;0.30;;;24.30;91.90;;;;;;5027511;28;20463;-78
2022/09/11 09:52:02;;;;;;;0.85;0.30;;;23.00;93.20;;;;;;5026850;28;20446;-76
2022/09/11 09:54:32;;;;;;;0.95;0.40;;;22.00;93.60;;;;;;5035856;28;20411;-78
2022/09/11 09:57:10;;;;;;;0.88;0.30;;;21.80;93.20;;;;;;5026771;28;20082;-75
2022/09/11 09:59:51;;;;;;;0.77;0.35;;;21.10;95.00;;;;;;5026452;28;20046;-77
2022/09/11 10:02:44;;;;;;;2.75;0.38;;;20.90;95.40;;;;;;5026892;28;20041;-77
2022/09/11 10:05:27;;;;;;;2.92;0.55;;;20.70;95.60;;;;;;5026207;28;20030;-75
2022/09/11 10:07:53;;;;;;;0.60;0.20;;;20.50;95.50;;;;;;5038643;28;20077;-78
2022/09/11 10:10:31;;;;;;;0.25;0.20;;;20.60;95.30;;;;;;5039721;28;20064;-77
2022/09/11 10:13:01;;;;;;;2.10;0.43;;;20.70;94.20;;;;;;5025487;28;20049;-75
2022/09/11 10:15:28;;;;;;;2.30;0.65;;;20.80;96.40;;;;;;5043636;28;20098;-75
2022/09/11 10:18:20;;;;;;;2.08;0.70;;;20.90;96.20;;;;;;5044263;28;20044;-76
2022/09/11 10:20:47;;;;;;;5.03;1.05;;;21.30;96.10;;;;;;5028683;28;20044;-77
2022/09/11 10:23:25;;;;;;;4.00;0.45;;;21.50;96.30;;;;;;5025670;28;20037;-77
2022/09/11 10:25:51;;;;;;;2.08;0.55;;;21.50;96.60;;;;;;5026864;28;20029;-77
2022/09/11 10:28:31;;;;;;;1.48;0.40;;;21.40;96.00;;;;;;5041393;28;20029;-78
2022/09/11 10:30:59;;;;;;;2.42;0.47;;;21.50;95.60;;;;;;5029154;28;20060;-78
2022/09/11 10:33:33;;;;;;;3.60;0.50;;;21.50;95.40;;;;;;5029614;28;20467;-78
2022/09/11 10:36:02;;;;;;;4.97;0.60;;;21.40;95.90;;;;;;5027129;28;20048;-78
2022/09/11 10:38:37;;;;;;;3.75;0.70;;;21.90;95.30;;;;;;5025513;28;20038;-78
2022/09/11 10:41:14;;;;;;;2.42;0.47;;;22.00;94.90;;;;;;5026464;28;20515;-77
2022/09/11 10:43:49;;;;;;;0.63;0.20;;;21.90;94.50;;;;;;5028369;28;20033;-77
2022/09/11 10:46:31;;;;;;;2.05;0.20;;;22.10;94.70;;;;;;5028543;28;20116;-79
2022/09/11 10:49:15;;;;;;;0.32;0.10;;;22.30;93.70;;;;;;5038626;28;20035;-78
2022/09/11 10:51:42;;;;;;;1.17;0.38;;;22.60;94.00;;;;;;5034690;28;20025;-77
2022/09/11 10:54:32;;;;;;;2.00;0.28;;;22.50;93.40;;;;;;5030740;28;20021;-77
2022/09/11 10:57:23;;;;;;;0.85;0.40;;;22.60;94.90;;;;;;5028255;28;20037;-78
2022/09/11 10:59:58;;;;;;;0.25;0.13;;;22.50;95.20;;;;;;5041639;28;20178;-77
2022/09/11 11:02:50;;;;;;;1.45;0.20;;;22.50;94.20;;;;;;5046009;28;20044;-78
2022/09/11 11:05:40;;;;;;;1.02;0.30;;;22.50;95.00;;;;;;5028200;28;20087;-78
2022/09/11 11:08:20;;;;;;;1.60;0.30;;;22.60;94.20;;;;;;5033028;28;20034;-75
2022/09/11 11:11:21;;;;;;;1.35;0.50;;;22.60;93.60;;;;;;5045000;28;20570;-77
2022/09/11 11:14:06;;;;;;;0.75;0.47;;;22.50;92.30;;;;;;5030787;28;20546;-77
2022/09/11 11:16:41;;;;;;;0.75;0.30;;;22.70;93.40;;;;;;5027939;28;20029;-77
2022/09/11 11:19:46;;;;;;;1.00;0.25;;;22.70;91.50;;;;;;5039675;28;20736;-78
2022/09/11 11:22:44;;;;;;;1.13;0.30;;;22.60;91.50;;;;;;5041549;28;20049;-78
2022/09/11 11:25:16;;;;;;;0.35;0.17;;;22.90;93.90;;;;;;5027430;28;20108;-78
2022/09/11 11:28:05;;;;;;;0.60;0.30;;;23.00;93.20;;;;;;5028013;28;20044;-78
2022/09/11 11:30:44;;;;;;;1.88;0.40;;;23.10;92.50;;;;;;5031722;28;20037;-75
2022/09/11 11:33:16;;;;;;;0.35;0.28;;;23.00;92.40;;;;;;5031527;28;20024;-75
2022/09/11 11:35:48;;;;;;;1.33;0.38;;;23.00;92.10;;;;;;5036344;28;20037;-78
2022/09/11 11:38:23;;;;;;;2.22;0.40;;;23.10;91.90;;;;;;5027372;28;20418;-75
2022/09/11 11:41:04;;;;;;;0.10;0.10;;;23.30;92.30;;;;;;5028176;28;20069;-78
2022/09/11 11:43:36;;;;;;;2.80;0.30;;;23.50;93.00;;;;;;5046730;28;20037;-77
2022/09/11 11:46:17;;;;;;;0.85;0.32;;;23.50;92.00;;;;;;5045695;28;20378;-78
2022/09/11 11:48:54;;;;;;;1.88;0.35;;;23.50;91.50;;;;;;5046606;28;20032;-78
2022/09/11 11:51:29;;;;;;;0.57;0.17;;;23.40;91.00;;;;;;5034095;28;20041;-77
2022/09/11 11:54:12;;;;;;;1.17;0.30;;;23.50;91.90;;;;;;5046466;28;20036;-75
2022/09/11 11:56:53;;;;;;;6.65;0.50;;;23.50;91.40;;;;;;5042594;28;20037;-77
2022/09/11 11:59:39;;;;;;;1.27;0.52;;;23.80;90.90;;;;;;5027138;28;20699;-77
2022/09/11 12:02:07;;;;;;;0.45;0.15;;;23.90;92.00;;;;;;5045982;28;20113;-78
2022/09/11 12:04:36;;;;;;;2.58;0.40;;;24.00;91.60;;;;;;5047120;28;20037;-78
2022/09/11 12:07:03;;;;;;;2.28;0.35;;;24.00;92.10;;;;;;5041396;28;20029;-78
2022/09/11 12:09:30;;;;;;;1.00;0.32;;;24.10;90.90;;;;;;5046233;28;20029;-78
2022/09/11 12:12:05;;;;;;;0.90;0.40;;;23.90;90.90;;;;;;5040997;28;20099;-75
2022/09/11 12:14:33;;;;;;;0.82;0.20;;;24.00;90.80;;;;;;5029218;28;20091;-75
2022/09/11 12:17:24;;;;;;;0.40;0.20;;;23.70;90.30;;;;;;5037962;28;20033;-76
2022/09/11 12:20:08;;;;;;;0.52;0.20;;;23.70;90.80;;;;;;5026626;28;20041;-75
2022/09/11 12:22:45;;;;;;;0.85;0.28;;;23.90;91.30;;;;;;5026887;28;20423;-76
2022/09/11 12:25:20;;;;;;;1.05;0.20;;;24.00;90.80;;;;;;5026933;28;20037;-76
2022/09/11 12:27:48;;;;;;;0.80;0.25;;;24.20;90.40;;;;;;5028363;28;20040;-75
2022/09/11 12:30:16;;;;;;;1.63;0.20;;;24.50;91.90;;;;;;5046891;28;20047;-75
2022/09/11 12:32:47;;;;;;;1.08;0.25;;;24.70;92.00;;;;;;5035167;28;20050;-78
2022/09/11 12:35:20;;;;;;;0.38;0.25;;;24.60;90.50;;;;;;5031826;28;20057;-79
2022/09/11 12:38:11;;;;;;;0.40;0.30;;;24.60;90.40;;;;;;5044850;28;20110;-78
2022/09/11 12:40:52;;;;;;;0.98;0.20;;;24.80;90.30;;;;;;5046386;28;20135;-78
2022/09/11 12:43:50;;;;;;;2.28;0.28;;;24.80;90.00;;;;;;5026597;28;20026;-75
2022/09/11 12:46:25;;;;;;;0.30;0.13;;;24.50;90.20;;;;;;5025562;28;20124;-78
2022/09/11 12:48:52;;;;;;;0.98;0.30;;;24.80;92.00;;;;;;5045752;28;20058;-75
2022/09/11 12:51:34;;;;;;;0.85;0.20;;;24.90;90.50;;;;;;5029087;28;20705;-76
2022/09/11 12:54:12;;;;;;;0.88;0.40;;;25.00;90.30;;;;;;5046990;28;20029;-75
2022/09/11 12:56:48;;;;;;;0.47;0.30;;;24.90;89.80;;;;;;5046636;28;20495;-79
2022/09/11 12:59:24;;;;;;;1.13;0.30;;;24.80;89.50;;;;;;5046271;28;20033;-78
2022/09/11 13:01:51;;;;;;;0.57;0.32;;;24.70;91.10;;;;;;5033217;28;20610;-75
2022/09/11 13:04:22;;;;;;;1.17;0.20;;;24.80;91.20;;;;;;5027286;28;20037;-75
2022/09/11 13:06:55;;;;;;;3.28;0.30;;;25.00;90.50;;;;;;5032092;28;20025;-75
2022/09/11 13:09:24;;;;;;;5.78;0.70;;;25.00;89.00;;;;;;5040782;28;20029;-76
2022/09/11 13:11:52;;;;;;;0.68;0.30;;;25.00;90.10;;;;;;5026315;28;20060;-75